sensor_id;sensor_type;location;lat;lon;timestamp;pressure;altitude;pressure_sealevel;temperature;humidity
5053;BME280;2545;50.892;5.740;2023-03-23T00:00:59;56261.13;;;-142.21;84.03
5053;BME280;2545;50.892;5.740;2023-03-23T00:03:24;56276.81;;;-142.21;84.64
5053;BME280;2545;50.892;5.740;2023-03-23T00:05:51;56272.88;;;-142.21;85.60
5053;BME280;2545;50.892;5.740;2023-03-23T00:08:18;56265.03;;;-142.21;85.62
5053;BME280;2545;50.892;5.740;2023-03-23T00:10:48;56286.63;;;-142.21;86.19
5053;BME280;2545;50.892;5.740;2023-03-23T00:13:14;56300.34;;;-142.21;86.19
5053;BME280;2545;50.892;5.740;2023-03-23T00:15:44;56306.22;;;-142.21;86.77
5053;BME280;2545;50.892;5.740;2023-03-23T00:18:10;56314.06;;;-142.21;87.04
5053;BME280;2545;50.892;5.740;2023-03-23T00:20:56;56276.81;;;-142.21;87.20
5053;BME280;2545;50.892;5.740;2023-03-23T00:23:24;56314.06;;;-142.21;88.00
5053;BME280;2545;50.892;5.740;2023-03-23T00:25:55;56270.91;;;-142.21;88.53
5053;BME280;2545;50.892;5.740;2023-03-23T00:28:24;56298.38;;;-142.21;87.29
5053;BME280;2545;50.892;5.740;2023-03-23T00:31:04;56294.47;;;-142.21;87.13
5053;BME280;2545;50.892;5.740;2023-03-23T00:33:33;56286.63;;;-142.21;88.04
5053;BME280;2545;50.892;5.740;2023-03-23T00:36:12;56241.50;;;-142.21;87.66
5053;BME280;2545;50.892;5.740;2023-03-23T00:38:39;56276.81;;;-142.21;88.18
5053;BME280;2545;50.892;5.740;2023-03-23T00:41:05;56292.50;;;-142.21;87.82
5053;BME280;2545;50.892;5.740;2023-03-23T00:43:32;56286.63;;;-142.21;88.74
5053;BME280;2545;50.892;5.740;2023-03-23T00:46:01;56253.28;;;-142.21;88.43
5053;BME280;2545;50.892;5.740;2023-03-23T00:48:28;56306.22;;;-142.21;88.97
5053;BME280;2545;50.892;5.740;2023-03-23T00:50:54;56308.19;;;-142.21;89.81
5053;BME280;2545;50.892;5.740;2023-03-23T00:53:20;56284.66;;;-142.21;89.63
5053;BME280;2545;50.892;5.740;2023-03-23T00:55:46;56288.56;;;-142.21;89.91
5053;BME280;2545;50.892;5.740;2023-03-23T00:58:13;56321.91;;;-142.21;92.52
5053;BME280;2545;50.892;5.740;2023-03-23T01:00:39;56339.56;;;-142.21;93.40
5053;BME280;2545;50.892;5.740;2023-03-23T01:03:06;56280.72;;;-142.21;96.11
5053;BME280;2545;50.892;5.740;2023-03-23T01:05:49;56247.38;;;-142.21;98.12
5053;BME280;2545;50.892;5.740;2023-03-23T01:08:18;56294.47;;;-142.21;99.21
5053;BME280;2545;50.892;5.740;2023-03-23T01:10:44;56284.66;;;-142.21;100.00
5053;BME280;2545;50.892;5.740;2023-03-23T01:13:10;56314.06;;;-142.21;100.00
5053;BME280;2545;50.892;5.740;2023-03-23T01:15:36;56286.63;;;-142.21;100.00
5053;BME280;2545;50.892;5.740;2023-03-23T01:18:01;56296.41;;;-142.21;100.00
5053;BME280;2545;50.892;5.740;2023-03-23T01:20:27;56306.22;;;-142.21;100.00
5053;BME280;2545;50.892;5.740;2023-03-23T01:22:54;56276.81;;;-142.21;100.00
5053;BME280;2545;50.892;5.740;2023-03-23T01:25:27;56284.66;;;-142.21;100.00
5053;BME280;2545;50.892;5.740;2023-03-23T01:27:53;56302.28;;;-142.21;100.00
5053;BME280;2545;50.892;5.740;2023-03-23T01:30:19;56296.41;;;-142.21;100.00
5053;BME280;2545;50.892;5.740;2023-03-23T01:32:44;56263.06;;;-142.21;100.00
5053;BME280;2545;50.892;5.740;2023-03-23T01:35:12;56312.09;;;-142.21;100.00
5053;BME280;2545;50.892;5.740;2023-03-23T01:37:37;56247.38;;;-142.21;100.00
5053;BME280;2545;50.892;5.740;2023-03-23T01:40:03;56292.50;;;-142.21;100.00
5053;BME280;2545;50.892;5.740;2023-03-23T01:42:32;56268.97;;;-142.21;100.00
5053;BME280;2545;50.892;5.740;2023-03-23T01:47:47;56292.50;;;-142.21;100.00
5053;BME280;2545;50.892;5.740;2023-03-23T01:50:16;56288.56;;;-142.21;100.00
5053;BME280;2545;50.892;5.740;2023-03-23T01:52:42;56261.13;;;-142.21;100.00
5053;BME280;2545;50.892;5.740;2023-03-23T01:55:07;56316.03;;;-142.21;100.00
5053;BME280;2545;50.892;5.740;2023-03-23T01:57:33;56274.84;;;-142.21;100.00
5053;BME280;2545;50.892;5.740;2023-03-23T02:00:03;56306.22;;;-142.21;100.00
5053;BME280;2545;50.892;5.740;2023-03-23T02:02:46;56290.53;;;-142.21;99.67
5053;BME280;2545;50.892;5.740;2023-03-23T02:05:34;56278.78;;;-142.21;98.48
5053;BME280;2545;50.892;5.740;2023-03-23T02:08:03;56272.88;;;-142.21;98.15
5053;BME280;2545;50.892;5.740;2023-03-23T02:10:31;56280.72;;;-142.21;97.87
5053;BME280;2545;50.892;5.740;2023-03-23T02:12:59;56274.84;;;-142.21;98.03
5053;BME280;2545;50.892;5.740;2023-03-23T02:15:28;56314.06;;;-142.21;97.43
5053;BME280;2545;50.892;5.740;2023-03-23T02:23:38;56286.63;;;-142.21;99.49
5053;BME280;2545;50.892;5.740;2023-03-23T02:26:19;56274.84;;;-142.21;99.10
5053;BME280;2545;50.892;5.740;2023-03-23T02:29:11;56292.50;;;-142.21;99.07
5053;BME280;2545;50.892;5.740;2023-03-23T02:32:04;56321.91;;;-142.21;98.68
5053;BME280;2545;50.892;5.740;2023-03-23T02:34:45;56308.19;;;-142.21;99.60
5053;BME280;2545;50.892;5.740;2023-03-23T02:37:38;56319.94;;;-142.21;99.44
5053;BME280;2545;50.892;5.740;2023-03-23T02:40:12;56304.25;;;-142.21;99.41
5053;BME280;2545;50.892;5.740;2023-03-23T02:42:43;56268.97;;;-142.21;100.00
5053;BME280;2545;50.892;5.740;2023-03-23T02:45:10;56316.03;;;-142.21;100.00
5053;BME280;2545;50.892;5.740;2023-03-23T02:47:38;56284.66;;;-142.21;100.00
5053;BME280;2545;50.892;5.740;2023-03-23T02:50:05;56272.88;;;-142.21;99.69
5053;BME280;2545;50.892;5.740;2023-03-23T02:52:33;56294.47;;;-142.21;100.00
5053;BME280;2545;50.892;5.740;2023-03-23T02:55:01;56280.72;;;-142.21;98.73
5053;BME280;2545;50.892;5.740;2023-03-23T02:57:28;56308.19;;;-142.21;98.54
5053;BME280;2545;50.892;5.740;2023-03-23T02:59:54;56337.59;;;-142.21;98.40
5053;BME280;2545;50.892;5.740;2023-03-23T03:02:25;56317.97;;;-142.21;98.13
5053;BME280;2545;50.892;5.740;2023-03-23T03:05:14;56284.66;;;-142.21;98.12
5053;BME280;2545;50.892;5.740;2023-03-23T03:10:46;56280.72;;;-142.21;97.36
5053;BME280;2545;50.892;5.740;2023-03-23T03:13:31;56312.09;;;-142.21;96.99
5053;BME280;2545;50.892;5.740;2023-03-23T03:16:00;56286.63;;;-142.21;96.97
5053;BME280;2545;50.892;5.740;2023-03-23T03:18:37;56280.72;;;-142.21;97.04
5053;BME280;2545;50.892;5.740;2023-03-23T03:21:07;56294.47;;;-142.21;97.03
5053;BME280;2545;50.892;5.740;2023-03-23T03:23:40;56314.06;;;-142.21;96.17
5053;BME280;2545;50.892;5.740;2023-03-23T03:26:07;56288.56;;;-142.21;95.65
5053;BME280;2545;50.892;5.740;2023-03-23T03:28:36;56317.97;;;-142.21;95.72
5053;BME280;2545;50.892;5.740;2023-03-23T03:31:03;56314.06;;;-142.21;95.40
5053;BME280;2545;50.892;5.740;2023-03-23T03:33:30;56284.66;;;-142.21;95.24
5053;BME280;2545;50.892;5.740;2023-03-23T03:35:58;56296.41;;;-142.21;94.81
5053;BME280;2545;50.892;5.740;2023-03-23T03:38:25;56284.66;;;-142.21;94.70
5053;BME280;2545;50.892;5.740;2023-03-23T03:40:51;56327.78;;;-142.21;94.67
5053;BME280;2545;50.892;5.740;2023-03-23T03:43:17;56294.47;;;-142.21;94.78
5053;BME280;2545;50.892;5.740;2023-03-23T03:45:42;56292.50;;;-142.21;95.46
5053;BME280;2545;50.892;5.740;2023-03-23T03:48:08;56300.34;;;-142.21;94.73
5053;BME280;2545;50.892;5.740;2023-03-23T03:50:33;56286.63;;;-142.21;94.47
5053;BME280;2545;50.892;5.740;2023-03-23T03:52:58;56308.19;;;-142.21;94.24
5053;BME280;2545;50.892;5.740;2023-03-23T03:55:24;56300.34;;;-142.21;94.80
5053;BME280;2545;50.892;5.740;2023-03-23T03:57:50;56270.91;;;-142.21;95.45
5053;BME280;2545;50.892;5.740;2023-03-23T04:00:16;56300.34;;;-142.21;95.95
5053;BME280;2545;50.892;5.740;2023-03-23T04:02:43;56323.88;;;-142.21;94.88
5053;BME280;2545;50.892;5.740;2023-03-23T04:05:09;56276.81;;;-142.21;94.74
5053;BME280;2545;50.892;5.740;2023-03-23T04:07:36;56300.34;;;-142.21;94.77
5053;BME280;2545;50.892;5.740;2023-03-23T04:10:04;56316.03;;;-142.21;93.62
5053;BME280;2545;50.892;5.740;2023-03-23T04:12:30;56308.19;;;-142.21;93.25
5053;BME280;2545;50.892;5.740;2023-03-23T04:14:57;56310.13;;;-142.21;91.77
5053;BME280;2545;50.892;5.740;2023-03-23T04:17:22;56280.72;;;-142.21;91.24
5053;BME280;2545;50.892;5.740;2023-03-23T04:19:47;56296.41;;;-142.21;91.20
5053;BME280;2545;50.892;5.740;2023-03-23T04:22:13;56308.19;;;-142.21;90.78
5053;BME280;2545;50.892;5.740;2023-03-23T04:24:38;56314.06;;;-142.21;90.78
5053;BME280;2545;50.892;5.740;2023-03-23T04:27:03;56274.84;;;-142.21;90.44
5053;BME280;2545;50.892;5.740;2023-03-23T04:29:30;56294.47;;;-142.21;89.28
5053;BME280;2545;50.892;5.740;2023-03-23T04:31:55;56294.47;;;-142.21;89.20
5053;BME280;2545;50.892;5.740;2023-03-23T04:34:21;56257.19;;;-142.21;89.64
5053;BME280;2545;50.892;5.740;2023-03-23T04:36:47;56312.09;;;-142.21;89.12
5053;BME280;2545;50.892;5.740;2023-03-23T04:39:12;56270.91;;;-142.21;88.07
5053;BME280;2545;50.892;5.740;2023-03-23T04:41:39;56241.50;;;-142.21;88.17
5053;BME280;2545;50.892;5.740;2023-03-23T04:44:06;56255.22;;;-142.21;87.33
5053;BME280;2545;50.892;5.740;2023-03-23T04:46:32;56270.91;;;-142.21;87.66
5053;BME280;2545;50.892;5.740;2023-03-23T04:48:58;56290.53;;;-142.21;87.69
5053;BME280;2545;50.892;5.740;2023-03-23T04:51:25;56323.88;;;-142.21;86.99
5053;BME280;2545;50.892;5.740;2023-03-23T04:53:51;56304.25;;;-142.21;86.95
5053;BME280;2545;50.892;5.740;2023-03-23T04:56:16;56257.19;;;-142.21;85.86
5053;BME280;2545;50.892;5.740;2023-03-23T04:58:42;56280.72;;;-142.21;85.44
5053;BME280;2545;50.892;5.740;2023-03-23T05:01:08;56294.47;;;-142.21;85.43
5053;BME280;2545;50.892;5.740;2023-03-23T05:03:34;56278.78;;;-142.21;85.22
5053;BME280;2545;50.892;5.740;2023-03-23T05:06:01;56298.38;;;-142.21;85.25
5053;BME280;2545;50.892;5.740;2023-03-23T05:08:27;56306.22;;;-142.21;84.75
5053;BME280;2545;50.892;5.740;2023-03-23T05:10:55;56304.25;;;-142.21;84.22
5053;BME280;2545;50.892;5.740;2023-03-23T05:13:21;56294.47;;;-142.21;83.88
5053;BME280;2545;50.892;5.740;2023-03-23T05:15:47;56288.56;;;-142.21;84.15
5053;BME280;2545;50.892;5.740;2023-03-23T05:18:13;56280.72;;;-142.21;82.92
5053;BME280;2545;50.892;5.740;2023-03-23T05:20:39;56300.34;;;-142.21;83.06
5053;BME280;2545;50.892;5.740;2023-03-23T05:23:07;56274.84;;;-142.21;82.72
5053;BME280;2545;50.892;5.740;2023-03-23T05:25:32;56237.59;;;-142.21;82.08
5053;BME280;2545;50.892;5.740;2023-03-23T05:28:02;56265.03;;;-142.21;82.31
5053;BME280;2545;50.892;5.740;2023-03-23T05:30:27;56292.50;;;-142.21;81.81
5053;BME280;2545;50.892;5.740;2023-03-23T05:32:53;56280.72;;;-142.21;82.13
5053;BME280;2545;50.892;5.740;2023-03-23T05:35:18;56261.13;;;-142.21;82.75
5053;BME280;2545;50.892;5.740;2023-03-23T05:37:44;56276.81;;;-142.21;82.75
5053;BME280;2545;50.892;5.740;2023-03-23T05:40:11;56267.00;;;-142.21;83.00
5053;BME280;2545;50.892;5.740;2023-03-23T05:42:38;56251.31;;;-142.21;83.05
5053;BME280;2545;50.892;5.740;2023-03-23T05:45:05;56296.41;;;-142.21;83.09
5053;BME280;2545;50.892;5.740;2023-03-23T05:47:31;56288.56;;;-142.21;82.70
5053;BME280;2545;50.892;5.740;2023-03-23T05:49:57;56296.41;;;-142.21;82.77
5053;BME280;2545;50.892;5.740;2023-03-23T05:52:22;56272.88;;;-142.21;82.38
5053;BME280;2545;50.892;5.740;2023-03-23T05:54:49;56298.38;;;-142.21;82.59
5053;BME280;2545;50.892;5.740;2023-03-23T05:57:16;56319.94;;;-142.21;82.17
5053;BME280;2545;50.892;5.740;2023-03-23T05:59:42;56259.16;;;-142.21;82.97
5053;BME280;2545;50.892;5.740;2023-03-23T06:02:07;56296.41;;;-142.21;82.56
5053;BME280;2545;50.892;5.740;2023-03-23T06:04:32;56272.88;;;-142.21;82.12
5053;BME280;2545;50.892;5.740;2023-03-23T06:07:02;56267.00;;;-142.21;82.39
5053;BME280;2545;50.892;5.740;2023-03-23T06:09:28;56294.47;;;-142.21;82.61
5053;BME280;2545;50.892;5.740;2023-03-23T06:11:54;56308.19;;;-142.21;82.90
5053;BME280;2545;50.892;5.740;2023-03-23T06:14:19;56251.31;;;-142.21;82.49
5053;BME280;2545;50.892;5.740;2023-03-23T06:16:45;56294.47;;;-142.21;82.22
5053;BME280;2545;50.892;5.740;2023-03-23T06:19:10;56288.56;;;-142.21;82.60
5053;BME280;2545;50.892;5.740;2023-03-23T06:21:36;56267.00;;;-142.21;82.06
5053;BME280;2545;50.892;5.740;2023-03-23T06:24:02;56263.06;;;-142.21;81.71
5053;BME280;2545;50.892;5.740;2023-03-23T06:26:35;56267.00;;;-142.21;81.28
5053;BME280;2545;50.892;5.740;2023-03-23T06:29:02;56267.00;;;-142.21;81.33
5053;BME280;2545;50.892;5.740;2023-03-23T06:31:27;56304.25;;;-142.21;81.37
5053;BME280;2545;50.892;5.740;2023-03-23T06:33:53;56249.34;;;-142.21;80.95
5053;BME280;2545;50.892;5.740;2023-03-23T06:36:18;56280.72;;;-142.21;80.44
5053;BME280;2545;50.892;5.740;2023-03-23T06:38:44;56282.69;;;-142.21;80.35
5053;BME280;2545;50.892;5.740;2023-03-23T06:41:10;56268.97;;;-142.21;79.50
5053;BME280;2545;50.892;5.740;2023-03-23T06:43:36;56278.78;;;-142.21;79.46
5053;BME280;2545;50.892;5.740;2023-03-23T06:46:05;56298.38;;;-142.21;78.63
5053;BME280;2545;50.892;5.740;2023-03-23T06:48:30;56296.41;;;-142.21;79.13
5053;BME280;2545;50.892;5.740;2023-03-23T06:50:57;56304.25;;;-142.21;78.54
5053;BME280;2545;50.892;5.740;2023-03-23T06:53:22;56229.75;;;-142.21;78.41
5053;BME280;2545;50.892;5.740;2023-03-23T06:55:47;56276.81;;;-142.21;77.87
5053;BME280;2545;50.892;5.740;2023-03-23T06:58:13;56241.50;;;-142.21;77.61
5053;BME280;2545;50.892;5.740;2023-03-23T07:00:39;56261.13;;;-142.21;77.77
5053;BME280;2545;50.892;5.740;2023-03-23T07:03:05;56278.78;;;-142.21;76.95
5053;BME280;2545;50.892;5.740;2023-03-23T07:05:33;56290.53;;;-142.21;77.13
5053;BME280;2545;50.892;5.740;2023-03-23T07:07:58;56265.03;;;-142.21;77.20
5053;BME280;2545;50.892;5.740;2023-03-23T07:10:23;56268.97;;;-142.21;76.93
5053;BME280;2545;50.892;5.740;2023-03-23T07:12:48;56310.13;;;-142.21;77.20
5053;BME280;2545;50.892;5.740;2023-03-23T07:15:15;56255.22;;;-142.21;76.51
5053;BME280;2545;50.892;5.740;2023-03-23T07:17:40;56253.28;;;-142.21;76.01
5053;BME280;2545;50.892;5.740;2023-03-23T07:20:06;56268.97;;;-142.21;75.85
5053;BME280;2545;50.892;5.740;2023-03-23T07:22:33;56255.22;;;-142.21;76.35
5053;BME280;2545;50.892;5.740;2023-03-23T07:24:58;56261.13;;;-142.21;76.09
5053;BME280;2545;50.892;5.740;2023-03-23T07:27:24;56280.72;;;-142.21;75.89
5053;BME280;2545;50.892;5.740;2023-03-23T07:29:50;56272.88;;;-142.21;75.78
5053;BME280;2545;50.892;5.740;2023-03-23T07:32:15;56251.31;;;-142.21;74.18
5053;BME280;2545;50.892;5.740;2023-03-23T07:34:41;56233.66;;;-142.21;74.97
5053;BME280;2545;50.892;5.740;2023-03-23T07:37:07;56276.81;;;-142.21;74.13
5053;BME280;2545;50.892;5.740;2023-03-23T07:39:33;56284.66;;;-142.21;73.95
5053;BME280;2545;50.892;5.740;2023-03-23T07:41:59;56261.13;;;-142.21;74.85
5053;BME280;2545;50.892;5.740;2023-03-23T07:44:24;56282.69;;;-142.21;74.28
5053;BME280;2545;50.892;5.740;2023-03-23T07:46:50;56290.53;;;-142.21;74.11
5053;BME280;2545;50.892;5.740;2023-03-23T07:49:16;56263.06;;;-142.21;72.95
5053;BME280;2545;50.892;5.740;2023-03-23T07:51:42;56255.22;;;-142.21;72.58
5053;BME280;2545;50.892;5.740;2023-03-23T07:54:08;56259.16;;;-142.21;72.44
5053;BME280;2545;50.892;5.740;2023-03-23T07:56:34;56245.44;;;-142.21;72.32
5053;BME280;2545;50.892;5.740;2023-03-23T07:59:00;56280.72;;;-142.21;72.67
5053;BME280;2545;50.892;5.740;2023-03-23T08:01:26;56257.19;;;-142.21;73.03
5053;BME280;2545;50.892;5.740;2023-03-23T08:03:51;56270.91;;;-142.21;72.71
5053;BME280;2545;50.892;5.740;2023-03-23T08:06:19;56282.69;;;-142.21;74.45
5053;BME280;2545;50.892;5.740;2023-03-23T08:08:46;56255.22;;;-142.21;75.21
5053;BME280;2545;50.892;5.740;2023-03-23T08:11:11;56304.25;;;-142.21;76.42
5053;BME280;2545;50.892;5.740;2023-03-23T08:13:38;56280.72;;;-142.21;77.07
5053;BME280;2545;50.892;5.740;2023-03-23T08:16:04;56233.66;;;-142.21;76.91
5053;BME280;2545;50.892;5.740;2023-03-23T08:18:30;56257.19;;;-142.21;76.57
5053;BME280;2545;50.892;5.740;2023-03-23T08:20:57;56253.28;;;-142.21;77.74
5053;BME280;2545;50.892;5.740;2023-03-23T08:23:22;56265.03;;;-142.21;79.49
5053;BME280;2545;50.892;5.740;2023-03-23T08:25:48;56259.16;;;-142.21;79.30
5053;BME280;2545;50.892;5.740;2023-03-23T08:28:13;56265.03;;;-142.21;78.09
5053;BME280;2545;50.892;5.740;2023-03-23T08:30:42;56284.66;;;-142.21;77.34
5053;BME280;2545;50.892;5.740;2023-03-23T08:33:07;56253.28;;;-142.21;77.82
5053;BME280;2545;50.892;5.740;2023-03-23T08:35:35;56259.16;;;-142.21;78.31
5053;BME280;2545;50.892;5.740;2023-03-23T08:38:01;56257.19;;;-142.21;76.08
5053;BME280;2545;50.892;5.740;2023-03-23T08:40:26;56272.88;;;-142.21;75.44
5053;BME280;2545;50.892;5.740;2023-03-23T08:42:53;56270.91;;;-142.21;75.69
5053;BME280;2545;50.892;5.740;2023-03-23T08:45:21;56276.81;;;-142.21;74.60
5053;BME280;2545;50.892;5.740;2023-03-23T08:47:47;56278.78;;;-142.21;74.60
5053;BME280;2545;50.892;5.740;2023-03-23T08:50:20;56251.31;;;-142.21;74.22
5053;BME280;2545;50.892;5.740;2023-03-23T08:52:48;56272.88;;;-142.21;74.22
5053;BME280;2545;50.892;5.740;2023-03-23T08:55:14;56284.66;;;-142.21;74.13
5053;BME280;2545;50.892;5.740;2023-03-23T08:57:40;56274.84;;;-142.21;74.33
5053;BME280;2545;50.892;5.740;2023-03-23T09:00:08;56300.34;;;-142.21;74.15
5053;BME280;2545;50.892;5.740;2023-03-23T09:02:48;56280.72;;;-142.21;74.02
5053;BME280;2545;50.892;5.740;2023-03-23T09:05:15;56280.72;;;-142.21;74.54
5053;BME280;2545;50.892;5.740;2023-03-23T09:07:43;56257.19;;;-142.21;74.65
5053;BME280;2545;50.892;5.740;2023-03-23T09:10:09;56278.78;;;-142.21;75.31
5053;BME280;2545;50.892;5.740;2023-03-23T09:12:35;56270.91;;;-142.21;75.66
5053;BME280;2545;50.892;5.740;2023-03-23T09:15:05;56265.03;;;-142.21;77.76
5053;BME280;2545;50.892;5.740;2023-03-23T09:17:45;56294.47;;;-142.21;76.58
5053;BME280;2545;50.892;5.740;2023-03-23T09:20:12;56265.03;;;-142.21;76.67
5053;BME280;2545;50.892;5.740;2023-03-23T09:22:46;56274.84;;;-142.21;76.31
5053;BME280;2545;50.892;5.740;2023-03-23T09:25:14;56235.63;;;-142.21;76.46
5053;BME280;2545;50.892;5.740;2023-03-23T09:27:41;56241.50;;;-142.21;75.35
5053;BME280;2545;50.892;5.740;2023-03-23T09:30:09;56312.09;;;-142.21;76.45
5053;BME280;2545;50.892;5.740;2023-03-23T09:32:36;56272.88;;;-142.21;76.43
5053;BME280;2545;50.892;5.740;2023-03-23T09:35:03;56302.28;;;-142.21;76.58
5053;BME280;2545;50.892;5.740;2023-03-23T09:37:29;56288.56;;;-142.21;77.05
5053;BME280;2545;50.892;5.740;2023-03-23T09:39:55;56288.56;;;-142.21;79.50
5053;BME280;2545;50.892;5.740;2023-03-23T09:50:17;56267.00;;;-142.21;90.05
5053;BME280;2545;50.892;5.740;2023-03-23T09:53:08;56292.50;;;-142.21;94.65
5053;BME280;2545;50.892;5.740;2023-03-23T09:55:37;56298.38;;;-142.21;95.13
5053;BME280;2545;50.892;5.740;2023-03-23T09:58:17;56263.06;;;-142.21;96.07
5053;BME280;2545;50.892;5.740;2023-03-23T10:00:50;56245.44;;;-142.21;100.00
5053;BME280;2545;50.892;5.740;2023-03-23T10:03:20;56217.97;;;-142.21;100.00
5053;BME280;2545;50.892;5.740;2023-03-23T10:08:20;56278.78;;;-142.21;100.00
5053;BME280;2545;50.892;5.740;2023-03-23T10:11:04;56323.88;;;-142.21;100.00
5053;BME280;2545;50.892;5.740;2023-03-23T10:16:25;56319.94;;;-142.21;100.00
5053;BME280;2545;50.892;5.740;2023-03-23T10:19:03;56270.91;;;-142.21;100.00
5053;BME280;2545;50.892;5.740;2023-03-23T10:21:35;56316.03;;;-142.21;100.00
5053;BME280;2545;50.892;5.740;2023-03-23T10:24:04;56304.25;;;-142.21;100.00
5053;BME280;2545;50.892;5.740;2023-03-23T10:31:41;56347.41;;;-142.21;100.00
5053;BME280;2545;50.892;5.740;2023-03-23T10:34:15;56298.38;;;-142.21;100.00
5053;BME280;2545;50.892;5.740;2023-03-23T10:37:21;56331.72;;;-142.21;100.00
5053;BME280;2545;50.892;5.740;2023-03-23T10:42:31;56327.78;;;-142.21;100.00
5053;BME280;2545;50.892;5.740;2023-03-23T10:45:12;56317.97;;;-142.21;100.00
5053;BME280;2545;50.892;5.740;2023-03-23T10:47:43;56312.09;;;-142.21;100.00
5053;BME280;2545;50.892;5.740;2023-03-23T10:50:13;56316.03;;;-142.21;100.00
5053;BME280;2545;50.892;5.740;2023-03-23T10:52:42;56300.34;;;-142.21;100.00
5053;BME280;2545;50.892;5.740;2023-03-23T10:55:16;56327.78;;;-142.21;100.00
5053;BME280;2545;50.892;5.740;2023-03-23T10:57:44;56288.56;;;-142.21;100.00
5053;BME280;2545;50.892;5.740;2023-03-23T11:00:21;56357.22;;;-142.21;100.00
5053;BME280;2545;50.892;5.740;2023-03-23T11:03:17;56325.84;;;-142.21;100.00
5053;BME280;2545;50.892;5.740;2023-03-23T11:06:05;56359.16;;;-142.21;100.00
5053;BME280;2545;50.892;5.740;2023-03-23T11:08:35;56329.75;;;-142.21;100.00
5053;BME280;2545;50.892;5.740;2023-03-23T11:11:16;56294.47;;;-142.21;100.00
5053;BME280;2545;50.892;5.740;2023-03-23T11:13:45;56317.97;;;-142.21;100.00
5053;BME280;2545;50.892;5.740;2023-03-23T11:18:50;56300.34;;;-142.21;100.00
5053;BME280;2545;50.892;5.740;2023-03-23T11:21:17;56290.53;;;-142.21;100.00
5053;BME280;2545;50.892;5.740;2023-03-23T11:23:50;56316.03;;;-142.21;100.00
5053;BME280;2545;50.892;5.740;2023-03-23T11:28:57;56316.03;;;-142.21;100.00
5053;BME280;2545;50.892;5.740;2023-03-23T11:31:28;56304.25;;;-142.21;100.00
5053;BME280;2545;50.892;5.740;2023-03-23T11:33:58;56308.19;;;-142.21;100.00
5053;BME280;2545;50.892;5.740;2023-03-23T11:36:33;56302.28;;;-142.21;100.00
5053;BME280;2545;50.892;5.740;2023-03-23T11:39:00;56337.59;;;-142.21;100.00
5053;BME280;2545;50.892;5.740;2023-03-23T11:41:34;56372.91;;;-142.21;100.00
5053;BME280;2545;50.892;5.740;2023-03-23T11:44:07;56310.13;;;-142.21;100.00
5053;BME280;2545;50.892;5.740;2023-03-23T11:46:39;56335.63;;;-142.21;100.00
5053;BME280;2545;50.892;5.740;2023-03-23T11:49:33;56310.13;;;-142.21;100.00
5053;BME280;2545;50.892;5.740;2023-03-23T11:52:13;56288.56;;;-142.21;100.00
5053;BME280;2545;50.892;5.740;2023-03-23T11:55:35;56270.91;;;-142.21;100.00
5053;BME280;2545;50.892;5.740;2023-03-23T11:57:34;56300.34;;;-142.21;100.00
5053;BME280;2545;50.892;5.740;2023-03-23T12:00:00;56319.94;;;-142.21;100.00
5053;BME280;2545;50.892;5.740;2023-03-23T12:07:50;56298.38;;;-142.21;100.00
5053;BME280;2545;50.892;5.740;2023-03-23T12:10:41;56298.38;;;-142.21;100.00
5053;BME280;2545;50.892;5.740;2023-03-23T12:13:34;56306.22;;;-142.21;100.00
5053;BME280;2545;50.892;5.740;2023-03-23T12:26:58;56265.03;;;-142.21;100.00
5053;BME280;2545;50.892;5.740;2023-03-23T12:32:42;56286.63;;;-142.21;100.00
5053;BME280;2545;50.892;5.740;2023-03-23T12:38:20;56292.50;;;-142.21;88.57
5053;BME280;2545;50.892;5.740;2023-03-23T12:41:12;56310.13;;;-142.21;86.92
5053;BME280;2545;50.892;5.740;2023-03-23T12:46:55;56272.88;;;-142.21;86.94
5053;BME280;2545;50.892;5.740;2023-03-23T12:49:34;56268.97;;;-142.21;87.74
5053;BME280;2545;50.892;5.740;2023-03-23T12:52:16;56274.84;;;-142.21;91.77
5053;BME280;2545;50.892;5.740;2023-03-23T12:57:43;56255.22;;;-142.21;100.00
5053;BME280;2545;50.892;5.740;2023-03-23T13:00:48;56288.56;;;-142.21;100.00
5053;BME280;2545;50.892;5.740;2023-03-23T13:06:43;56274.84;;;-142.21;100.00
5053;BME280;2545;50.892;5.740;2023-03-23T13:11:55;56265.03;;;-142.21;100.00
5053;BME280;2545;50.892;5.740;2023-03-23T13:14:47;56347.41;;;-142.21;100.00
5053;BME280;2545;50.892;5.740;2023-03-23T13:27:59;56282.69;;;-142.21;75.96
5053;BME280;2545;50.892;5.740;2023-03-23T13:30:27;56292.50;;;-142.21;76.66
5053;BME280;2545;50.892;5.740;2023-03-23T13:33:02;56253.28;;;-142.21;81.27
5053;BME280;2545;50.892;5.740;2023-03-23T13:35:33;56292.50;;;-142.21;86.73
5053;BME280;2545;50.892;5.740;2023-03-23T13:37:59;56284.66;;;-142.21;85.26
5053;BME280;2545;50.892;5.740;2023-03-23T13:40:29;56282.69;;;-142.21;87.60
5053;BME280;2545;50.892;5.740;2023-03-23T13:42:58;56278.78;;;-142.21;87.88
5053;BME280;2545;50.892;5.740;2023-03-23T13:45:43;56290.53;;;-142.21;88.18
5053;BME280;2545;50.892;5.740;2023-03-23T13:50:56;56284.66;;;-142.21;96.50
5053;BME280;2545;50.892;5.740;2023-03-23T13:56:19;56263.06;;;-142.21;100.00
5053;BME280;2545;50.892;5.740;2023-03-23T13:59:06;56245.44;;;-142.21;100.00
5053;BME280;2545;50.892;5.740;2023-03-23T14:01:35;56272.88;;;-142.21;100.00
5053;BME280;2545;50.892;5.740;2023-03-23T14:04:05;56304.25;;;-142.21;100.00
5053;BME280;2545;50.892;5.740;2023-03-23T14:06:35;56272.88;;;-142.21;100.00
5053;BME280;2545;50.892;5.740;2023-03-23T14:09:14;56294.47;;;-142.21;100.00
5053;BME280;2545;50.892;5.740;2023-03-23T14:11:48;56292.50;;;-142.21;100.00
5053;BME280;2545;50.892;5.740;2023-03-23T14:14:22;56268.97;;;-142.21;94.44
5053;BME280;2545;50.892;5.740;2023-03-23T14:16:50;56268.97;;;-142.21;90.21
5053;BME280;2545;50.892;5.740;2023-03-23T14:19:27;56276.81;;;-142.21;85.33
5053;BME280;2545;50.892;5.740;2023-03-23T14:21:58;56261.13;;;-142.21;78.52
5053;BME280;2545;50.892;5.740;2023-03-23T14:24:28;56327.78;;;-142.21;75.22
5053;BME280;2545;50.892;5.740;2023-03-23T14:27:13;56259.16;;;-142.21;75.09
5053;BME280;2545;50.892;5.740;2023-03-23T14:29:39;56259.16;;;-142.21;70.44
5053;BME280;2545;50.892;5.740;2023-03-23T14:32:07;56184.66;;;-142.21;68.91
5053;BME280;2545;50.892;5.740;2023-03-23T14:34:33;56233.66;;;-142.21;67.62
5053;BME280;2545;50.892;5.740;2023-03-23T14:37:00;56272.88;;;-142.21;67.72
5053;BME280;2545;50.892;5.740;2023-03-23T14:39:28;56261.13;;;-142.21;66.35